sensor_id;sensor_type;location;lat;lon;timestamp;P1;durP1;ratioP1;P2;durP2;ratioP2
24153;SDS011;12312;53.362;-1.518;2023-05-19T00:01:12;11.57;;;5.18;;
24153;SDS011;12312;53.362;-1.518;2023-05-19T00:04:55;10.07;;;4.85;;
24153;SDS011;12312;53.362;-1.518;2023-05-19T00:08:39;12.30;;;5.57;;
24153;SDS011;12312;53.362;-1.518;2023-05-19T00:12:22;9.45;;;4.80;;
24153;SDS011;12312;53.362;-1.518;2023-05-19T00:16:06;9.95;;;5.07;;
24153;SDS011;12312;53.362;-1.518;2023-05-19T00:19:49;11.07;;;5.10;;
24153;SDS011;12312;53.362;-1.518;2023-05-19T00:23:32;11.40;;;4.75;;
24153;SDS011;12312;53.362;-1.518;2023-05-19T00:27:14;10.48;;;5.10;;
24153;SDS011;12312;53.362;-1.518;2023-05-19T00:30:57;11.68;;;4.88;;
24153;SDS011;12312;53.362;-1.518;2023-05-19T00:34:39;9.93;;;4.57;;
24153;SDS011;12312;53.362;-1.518;2023-05-19T00:38:23;10.15;;;4.60;;
24153;SDS011;12312;53.362;-1.518;2023-05-19T00:42:06;8.90;;;4.38;;
24153;SDS011;12312;53.362;-1.518;2023-05-19T00:45:49;7.95;;;4.60;;
24153;SDS011;12312;53.362;-1.518;2023-05-19T00:49:32;10.50;;;4.90;;
24153;SDS011;12312;53.362;-1.518;2023-05-19T00:53:16;10.18;;;4.28;;
24153;SDS011;12312;53.362;-1.518;2023-05-19T00:56:59;12.68;;;5.00;;
24153;SDS011;12312;53.362;-1.518;2023-05-19T01:00:42;13.95;;;4.80;;
24153;SDS011;12312;53.362;-1.518;2023-05-19T01:04:25;10.30;;;4.68;;
24153;SDS011;12312;53.362;-1.518;2023-05-19T01:08:08;10.27;;;4.68;;
24153;SDS011;12312;53.362;-1.518;2023-05-19T01:11:51;13.07;;;5.07;;
24153;SDS011;12312;53.362;-1.518;2023-05-19T01:15:37;7.45;;;4.32;;
24153;SDS011;12312;53.362;-1.518;2023-05-19T01:23:41;7.13;;;4.38;;
24153;SDS011;12312;53.362;-1.518;2023-05-19T01:28:12;12.93;;;4.75;;
24153;SDS011;12312;53.362;-1.518;2023-05-19T01:32:08;11.30;;;5.18;;
24153;SDS011;12312;53.362;-1.518;2023-05-19T01:35:59;9.30;;;4.90;;
24153;SDS011;12312;53.362;-1.518;2023-05-19T01:39:44;8.27;;;4.85;;
24153;SDS011;12312;53.362;-1.518;2023-05-19T01:43:27;13.10;;;5.10;;
24153;SDS011;12312;53.362;-1.518;2023-05-19T01:47:11;13.15;;;5.80;;
24153;SDS011;12312;53.362;-1.518;2023-05-19T01:50:55;11.35;;;5.38;;
24153;SDS011;12312;53.362;-1.518;2023-05-19T01:54:38;12.07;;;5.85;;
24153;SDS011;12312;53.362;-1.518;2023-05-19T01:58:47;14.75;;;5.40;;
24153;SDS011;12312;53.362;-1.518;2023-05-19T02:06:46;11.98;;;5.88;;
24153;SDS011;12312;53.362;-1.518;2023-05-19T02:10:40;9.40;;;5.47;;
24153;SDS011;12312;53.362;-1.518;2023-05-19T02:14:38;13.55;;;5.95;;
24153;SDS011;12312;53.362;-1.518;2023-05-19T02:18:22;11.27;;;5.80;;
24153;SDS011;12312;53.362;-1.518;2023-05-19T02:22:12;12.90;;;5.95;;
24153;SDS011;12312;53.362;-1.518;2023-05-19T02:25:55;13.15;;;5.53;;
24153;SDS011;12312;53.362;-1.518;2023-05-19T02:29:38;9.85;;;5.00;;
24153;SDS011;12312;53.362;-1.518;2023-05-19T02:33:21;9.23;;;5.28;;
24153;SDS011;12312;53.362;-1.518;2023-05-19T02:37:04;9.73;;;5.43;;
24153;SDS011;12312;53.362;-1.518;2023-05-19T02:40:47;10.38;;;4.68;;
24153;SDS011;12312;53.362;-1.518;2023-05-19T02:44:30;13.05;;;5.47;;
24153;SDS011;12312;53.362;-1.518;2023-05-19T02:48:13;10.80;;;5.55;;
24153;SDS011;12312;53.362;-1.518;2023-05-19T02:51:56;14.05;;;6.20;;
24153;SDS011;12312;53.362;-1.518;2023-05-19T02:55:38;9.80;;;5.45;;
24153;SDS011;12312;53.362;-1.518;2023-05-19T02:59:21;9.35;;;5.03;;
24153;SDS011;12312;53.362;-1.518;2023-05-19T03:03:04;11.35;;;5.25;;
24153;SDS011;12312;53.362;-1.518;2023-05-19T03:06:47;11.95;;;4.90;;
24153;SDS011;12312;53.362;-1.518;2023-05-19T03:10:30;11.95;;;4.97;;
24153;SDS011;12312;53.362;-1.518;2023-05-19T03:14:14;11.90;;;6.57;;
24153;SDS011;12312;53.362;-1.518;2023-05-19T03:17:57;11.55;;;4.65;;
24153;SDS011;12312;53.362;-1.518;2023-05-19T03:21:40;10.93;;;4.65;;
24153;SDS011;12312;53.362;-1.518;2023-05-19T03:25:23;10.52;;;4.22;;
24153;SDS011;12312;53.362;-1.518;2023-05-19T03:29:07;9.43;;;4.07;;
24153;SDS011;12312;53.362;-1.518;2023-05-19T03:32:49;6.78;;;3.53;;
24153;SDS011;12312;53.362;-1.518;2023-05-19T03:36:32;10.55;;;4.10;;
24153;SDS011;12312;53.362;-1.518;2023-05-19T03:40:16;7.32;;;3.90;;
24153;SDS011;12312;53.362;-1.518;2023-05-19T03:43:59;6.22;;;3.80;;
24153;SDS011;12312;53.362;-1.518;2023-05-19T03:47:41;12.48;;;3.92;;
24153;SDS011;12312;53.362;-1.518;2023-05-19T03:51:24;8.70;;;3.47;;
24153;SDS011;12312;53.362;-1.518;2023-05-19T03:55:07;7.32;;;3.63;;
24153;SDS011;12312;53.362;-1.518;2023-05-19T03:58:50;11.57;;;4.05;;
24153;SDS011;12312;53.362;-1.518;2023-05-19T04:02:33;6.65;;;3.90;;
24153;SDS011;12312;53.362;-1.518;2023-05-19T04:06:16;10.63;;;4.07;;
24153;SDS011;12312;53.362;-1.518;2023-05-19T04:09:58;9.27;;;3.75;;
24153;SDS011;12312;53.362;-1.518;2023-05-19T04:13:41;7.30;;;3.25;;
24153;SDS011;12312;53.362;-1.518;2023-05-19T04:17:24;8.02;;;3.95;;
24153;SDS011;12312;53.362;-1.518;2023-05-19T04:21:07;10.63;;;4.25;;
24153;SDS011;12312;53.362;-1.518;2023-05-19T04:24:50;8.30;;;4.28;;
24153;SDS011;12312;53.362;-1.518;2023-05-19T04:28:33;8.02;;;4.20;;
24153;SDS011;12312;53.362;-1.518;2023-05-19T04:32:16;8.25;;;4.32;;
24153;SDS011;12312;53.362;-1.518;2023-05-19T04:35:59;10.75;;;4.38;;
24153;SDS011;12312;53.362;-1.518;2023-05-19T04:39:42;10.25;;;4.18;;
24153;SDS011;12312;53.362;-1.518;2023-05-19T04:43:25;8.80;;;4.47;;
24153;SDS011;12312;53.362;-1.518;2023-05-19T04:47:08;7.70;;;4.15;;
24153;SDS011;12312;53.362;-1.518;2023-05-19T04:50:51;9.77;;;3.88;;
24153;SDS011;12312;53.362;-1.518;2023-05-19T04:54:35;6.50;;;3.55;;
24153;SDS011;12312;53.362;-1.518;2023-05-19T04:58:18;8.57;;;4.20;;
24153;SDS011;12312;53.362;-1.518;2023-05-19T05:02:01;10.25;;;3.60;;
24153;SDS011;12312;53.362;-1.518;2023-05-19T05:05:47;11.15;;;4.03;;
24153;SDS011;12312;53.362;-1.518;2023-05-19T05:09:31;10.80;;;3.67;;
24153;SDS011;12312;53.362;-1.518;2023-05-19T05:13:14;8.88;;;3.30;;
24153;SDS011;12312;53.362;-1.518;2023-05-19T05:16:56;7.05;;;3.45;;
24153;SDS011;12312;53.362;-1.518;2023-05-19T05:20:40;10.25;;;4.10;;
24153;SDS011;12312;53.362;-1.518;2023-05-19T05:24:24;9.90;;;4.55;;
24153;SDS011;12312;53.362;-1.518;2023-05-19T05:28:07;11.07;;;4.07;;
24153;SDS011;12312;53.362;-1.518;2023-05-19T05:31:50;10.63;;;3.85;;
24153;SDS011;12312;53.362;-1.518;2023-05-19T05:35:33;10.20;;;3.85;;
24153;SDS011;12312;53.362;-1.518;2023-05-19T05:39:17;7.25;;;4.20;;
24153;SDS011;12312;53.362;-1.518;2023-05-19T05:43:00;9.82;;;3.58;;
24153;SDS011;12312;53.362;-1.518;2023-05-19T05:46:44;7.75;;;3.95;;
24153;SDS011;12312;53.362;-1.518;2023-05-19T05:50:26;10.57;;;4.20;;
24153;SDS011;12312;53.362;-1.518;2023-05-19T05:54:10;7.72;;;3.92;;
24153;SDS011;12312;53.362;-1.518;2023-05-19T05:57:54;8.90;;;3.70;;
24153;SDS011;12312;53.362;-1.518;2023-05-19T06:01:37;6.28;;;3.65;;
24153;SDS011;12312;53.362;-1.518;2023-05-19T06:05:21;7.30;;;3.35;;
24153;SDS011;12312;53.362;-1.518;2023-05-19T06:09:04;11.18;;;4.07;;
24153;SDS011;12312;53.362;-1.518;2023-05-19T06:12:47;13.85;;;5.28;;
24153;SDS011;12312;53.362;-1.518;2023-05-19T06:16:30;12.40;;;4.63;;
24153;SDS011;12312;53.362;-1.518;2023-05-19T06:20:13;7.88;;;3.40;;
24153;SDS011;12312;53.362;-1.518;2023-05-19T06:23:56;6.03;;;3.28;;
24153;SDS011;12312;53.362;-1.518;2023-05-19T06:27:39;5.78;;;2.90;;
24153;SDS011;12312;53.362;-1.518;2023-05-19T06:31:22;6.10;;;2.85;;
24153;SDS011;12312;53.362;-1.518;2023-05-19T06:35:06;9.68;;;2.88;;
24153;SDS011;12312;53.362;-1.518;2023-05-19T06:38:48;10.52;;;3.28;;
24153;SDS011;12312;53.362;-1.518;2023-05-19T06:42:34;6.15;;;2.63;;
24153;SDS011;12312;53.362;-1.518;2023-05-19T06:46:17;6.88;;;2.90;;
24153;SDS011;12312;53.362;-1.518;2023-05-19T06:50:00;8.63;;;3.00;;
24153;SDS011;12312;53.362;-1.518;2023-05-19T06:53:43;6.07;;;3.10;;
24153;SDS011;12312;53.362;-1.518;2023-05-19T06:57:26;5.68;;;3.08;;
24153;SDS011;12312;53.362;-1.518;2023-05-19T07:01:09;8.77;;;3.20;;
24153;SDS011;12312;53.362;-1.518;2023-05-19T07:04:52;9.02;;;2.80;;
24153;SDS011;12312;53.362;-1.518;2023-05-19T07:08:35;6.22;;;3.75;;
24153;SDS011;12312;53.362;-1.518;2023-05-19T07:12:18;6.00;;;2.70;;
24153;SDS011;12312;53.362;-1.518;2023-05-19T07:16:01;6.70;;;3.38;;
24153;SDS011;12312;53.362;-1.518;2023-05-19T07:19:43;13.07;;;3.45;;
24153;SDS011;12312;53.362;-1.518;2023-05-19T07:23:27;10.73;;;3.83;;
24153;SDS011;12312;53.362;-1.518;2023-05-19T07:27:10;9.50;;;3.47;;
24153;SDS011;12312;53.362;-1.518;2023-05-19T07:30:53;7.07;;;3.60;;
24153;SDS011;12312;53.362;-1.518;2023-05-19T07:34:40;9.82;;;4.15;;
24153;SDS011;12312;53.362;-1.518;2023-05-19T07:38:22;9.70;;;3.58;;
24153;SDS011;12312;53.362;-1.518;2023-05-19T07:42:08;8.82;;;4.00;;
24153;SDS011;12312;53.362;-1.518;2023-05-19T07:45:51;10.30;;;4.25;;
24153;SDS011;12312;53.362;-1.518;2023-05-19T07:49:34;6.85;;;3.38;;
24153;SDS011;12312;53.362;-1.518;2023-05-19T07:53:17;7.85;;;3.70;;
24153;SDS011;12312;53.362;-1.518;2023-05-19T07:57:00;7.05;;;3.60;;
24153;SDS011;12312;53.362;-1.518;2023-05-19T08:00:43;8.05;;;3.75;;
24153;SDS011;12312;53.362;-1.518;2023-05-19T08:04:26;6.47;;;4.10;;
24153;SDS011;12312;53.362;-1.518;2023-05-19T08:08:09;7.90;;;3.65;;
24153;SDS011;12312;53.362;-1.518;2023-05-19T08:11:52;11.75;;;4.80;;
24153;SDS011;12312;53.362;-1.518;2023-05-19T08:15:34;7.32;;;4.07;;
24153;SDS011;12312;53.362;-1.518;2023-05-19T08:19:17;8.38;;;4.40;;
24153;SDS011;12312;53.362;-1.518;2023-05-19T08:23:00;8.00;;;4.50;;
24153;SDS011;12312;53.362;-1.518;2023-05-19T08:26:44;9.73;;;4.60;;
24153;SDS011;12312;53.362;-1.518;2023-05-19T08:30:27;7.18;;;4.78;;
24153;SDS011;12312;53.362;-1.518;2023-05-19T08:34:10;8.20;;;4.47;;
24153;SDS011;12312;53.362;-1.518;2023-05-19T08:37:53;7.10;;;4.47;;
24153;SDS011;12312;53.362;-1.518;2023-05-19T08:41:36;6.50;;;4.35;;
24153;SDS011;12312;53.362;-1.518;2023-05-19T08:45:19;11.93;;;5.00;;
24153;SDS011;12312;53.362;-1.518;2023-05-19T08:49:07;9.27;;;5.57;;
24153;SDS011;12312;53.362;-1.518;2023-05-19T08:56:58;8.93;;;5.22;;
24153;SDS011;12312;53.362;-1.518;2023-05-19T09:00:42;9.10;;;5.05;;
24153;SDS011;12312;53.362;-1.518;2023-05-19T09:04:27;11.00;;;6.05;;
24153;SDS011;12312;53.362;-1.518;2023-05-19T09:08:09;11.65;;;5.65;;
24153;SDS011;12312;53.362;-1.518;2023-05-19T09:11:52;10.48;;;5.93;;
24153;SDS011;12312;53.362;-1.518;2023-05-19T09:15:36;16.05;;;6.25;;
24153;SDS011;12312;53.362;-1.518;2023-05-19T09:19:20;11.60;;;5.43;;
24153;SDS011;12312;53.362;-1.518;2023-05-19T09:23:03;14.73;;;5.72;;
24153;SDS011;12312;53.362;-1.518;2023-05-19T09:26:50;10.82;;;5.70;;
24153;SDS011;12312;53.362;-1.518;2023-05-19T09:30:36;9.93;;;5.25;;
24153;SDS011;12312;53.362;-1.518;2023-05-19T09:34:20;18.08;;;7.15;;
24153;SDS011;12312;53.362;-1.518;2023-05-19T09:38:04;11.82;;;6.22;;
24153;SDS011;12312;53.362;-1.518;2023-05-19T09:41:55;9.07;;;6.22;;
24153;SDS011;12312;53.362;-1.518;2023-05-19T09:45:38;11.98;;;5.60;;
24153;SDS011;12312;53.362;-1.518;2023-05-19T09:49:30;12.52;;;6.40;;
24153;SDS011;12312;53.362;-1.518;2023-05-19T09:53:15;12.65;;;5.80;;
24153;SDS011;12312;53.362;-1.518;2023-05-19T09:57:02;9.32;;;5.40;;
24153;SDS011;12312;53.362;-1.518;2023-05-19T10:00:48;9.27;;;5.82;;
24153;SDS011;12312;53.362;-1.518;2023-05-19T10:04:32;9.18;;;5.47;;
24153;SDS011;12312;53.362;-1.518;2023-05-19T10:08:16;10.75;;;5.07;;
24153;SDS011;12312;53.362;-1.518;2023-05-19T10:12:00;8.77;;;5.05;;
24153;SDS011;12312;53.362;-1.518;2023-05-19T10:15:43;10.00;;;5.13;;
24153;SDS011;12312;53.362;-1.518;2023-05-19T10:19:28;10.88;;;5.10;;
24153;SDS011;12312;53.362;-1.518;2023-05-19T10:23:12;12.10;;;5.43;;
24153;SDS011;12312;53.362;-1.518;2023-05-19T10:26:56;10.02;;;5.50;;
24153;SDS011;12312;53.362;-1.518;2023-05-19T10:30:46;10.23;;;6.00;;
24153;SDS011;12312;53.362;-1.518;2023-05-19T10:38:57;14.77;;;6.55;;
24153;SDS011;12312;53.362;-1.518;2023-05-19T10:47:00;13.18;;;6.63;;
24153;SDS011;12312;53.362;-1.518;2023-05-19T10:50:43;12.40;;;6.60;;
24153;SDS011;12312;53.362;-1.518;2023-05-19T10:54:37;12.13;;;6.70;;
24153;SDS011;12312;53.362;-1.518;2023-05-19T10:58:38;13.77;;;6.72;;
24153;SDS011;12312;53.362;-1.518;2023-05-19T11:02:36;13.23;;;7.25;;
24153;SDS011;12312;53.362;-1.518;2023-05-19T11:06:32;8.90;;;6.18;;
24153;SDS011;12312;53.362;-1.518;2023-05-19T11:10:16;11.57;;;7.15;;
24153;SDS011;12312;53.362;-1.518;2023-05-19T11:14:04;14.90;;;7.03;;
24153;SDS011;12312;53.362;-1.518;2023-05-19T11:17:47;13.77;;;6.72;;
24153;SDS011;12312;53.362;-1.518;2023-05-19T11:21:49;14.13;;;6.20;;
24153;SDS011;12312;53.362;-1.518;2023-05-19T11:29:42;12.70;;;5.88;;
24153;SDS011;12312;53.362;-1.518;2023-05-19T11:33:26;12.98;;;6.88;;
24153;SDS011;12312;53.362;-1.518;2023-05-19T11:37:09;10.85;;;5.75;;
24153;SDS011;12312;53.362;-1.518;2023-05-19T11:40:53;8.80;;;4.72;;
24153;SDS011;12312;53.362;-1.518;2023-05-19T11:44:38;10.40;;;5.35;;
24153;SDS011;12312;53.362;-1.518;2023-05-19T11:48:21;10.27;;;5.32;;
24153;SDS011;12312;53.362;-1.518;2023-05-19T11:52:04;10.32;;;5.45;;
24153;SDS011;12312;53.362;-1.518;2023-05-19T11:55:47;12.43;;;5.57;;
24153;SDS011;12312;53.362;-1.518;2023-05-19T11:59:30;11.38;;;5.68;;
24153;SDS011;12312;53.362;-1.518;2023-05-19T12:03:20;9.82;;;5.65;;
24153;SDS011;12312;53.362;-1.518;2023-05-19T12:07:03;10.23;;;5.32;;
24153;SDS011;12312;53.362;-1.518;2023-05-19T12:10:49;14.55;;;5.88;;
24153;SDS011;12312;53.362;-1.518;2023-05-19T12:14:35;10.43;;;5.32;;
24153;SDS011;12312;53.362;-1.518;2023-05-19T12:18:19;15.73;;;6.20;;
24153;SDS011;12312;53.362;-1.518;2023-05-19T12:22:01;14.77;;;6.05;;
24153;SDS011;12312;53.362;-1.518;2023-05-19T12:25:44;14.30;;;7.13;;
24153;SDS011;12312;53.362;-1.518;2023-05-19T12:29:27;12.38;;;6.65;;
24153;SDS011;12312;53.362;-1.518;2023-05-19T12:33:11;11.48;;;7.00;;
24153;SDS011;12312;53.362;-1.518;2023-05-19T12:36:55;14.30;;;7.07;;
24153;SDS011;12312;53.362;-1.518;2023-05-19T12:40:38;17.98;;;7.65;;
24153;SDS011;12312;53.362;-1.518;2023-05-19T12:44:21;14.93;;;7.13;;
24153;SDS011;12312;53.362;-1.518;2023-05-19T12:48:12;15.25;;;7.30;;
24153;SDS011;12312;53.362;-1.518;2023-05-19T12:51:55;12.50;;;7.00;;
24153;SDS011;12312;53.362;-1.518;2023-05-19T12:55:41;13.15;;;7.00;;
24153;SDS011;12312;53.362;-1.518;2023-05-19T12:59:32;13.98;;;7.55;;
24153;SDS011;12312;53.362;-1.518;2023-05-19T13:03:16;18.80;;;8.10;;
24153;SDS011;12312;53.362;-1.518;2023-05-19T13:06:59;14.18;;;7.82;;
24153;SDS011;12312;53.362;-1.518;2023-05-19T13:10:44;14.30;;;7.78;;
24153;SDS011;12312;53.362;-1.518;2023-05-19T13:14:27;17.75;;;7.30;;
24153;SDS011;12312;53.362;-1.518;2023-05-19T13:18:11;12.88;;;7.45;;
24153;SDS011;12312;53.362;-1.518;2023-05-19T13:21:54;13.00;;;7.07;;
24153;SDS011;12312;53.362;-1.518;2023-05-19T13:25:37;15.10;;;6.80;;
24153;SDS011;12312;53.362;-1.518;2023-05-19T13:29:20;13.07;;;6.55;;
24153;SDS011;12312;53.362;-1.518;2023-05-19T13:33:03;11.93;;;7.35;;
24153;SDS011;12312;53.362;-1.518;2023-05-19T13:36:46;12.55;;;7.82;;
24153;SDS011;12312;53.362;-1.518;2023-05-19T13:40:28;12.15;;;6.93;;
24153;SDS011;12312;53.362;-1.518;2023-05-19T13:44:12;11.23;;;6.75;;
24153;SDS011;12312;53.362;-1.518;2023-05-19T13:47:55;11.35;;;5.40;;
24153;SDS011;12312;53.362;-1.518;2023-05-19T13:51:39;11.60;;;6.53;;
24153;SDS011;12312;53.362;-1.518;2023-05-19T13:55:21;7.43;;;5.40;;
24153;SDS011;12312;53.362;-1.518;2023-05-19T13:59:04;12.32;;;6.63;;
24153;SDS011;12312;53.362;-1.518;2023-05-19T14:02:48;11.70;;;6.72;;
24153;SDS011;12312;53.362;-1.518;2023-05-19T14:06:31;12.80;;;6.75;;
24153;SDS011;12312;53.362;-1.518;2023-05-19T14:10:14;15.00;;;6.38;;
24153;SDS011;12312;53.362;-1.518;2023-05-19T14:14:04;7.93;;;4.57;;
24153;SDS011;12312;53.362;-1.518;2023-05-19T14:17:47;9.75;;;4.68;;
24153;SDS011;12312;53.362;-1.518;2023-05-19T14:21:30;9.27;;;5.20;;
24153;SDS011;12312;53.362;-1.518;2023-05-19T14:25:13;12.00;;;5.60;;
24153;SDS011;12312;53.362;-1.518;2023-05-19T14:28:55;9.85;;;5.90;;
24153;SDS011;12312;53.362;-1.518;2023-05-19T14:32:38;10.95;;;5.85;;
24153;SDS011;12312;53.362;-1.518;2023-05-19T14:36:21;13.82;;;6.03;;
24153;SDS011;12312;53.362;-1.518;2023-05-19T14:40:03;12.32;;;5.25;;
24153;SDS011;12312;53.362;-1.518;2023-05-19T14:43:46;8.82;;;5.20;;
24153;SDS011;12312;53.362;-1.518;2023-05-19T14:47:29;8.73;;;4.97;;
24153;SDS011;12312;53.362;-1.518;2023-05-19T14:51:11;6.70;;;4.00;;
24153;SDS011;12312;53.362;-1.518;2023-05-19T14:54:53;7.93;;;3.75;;
24153;SDS011;12312;53.362;-1.518;2023-05-19T14:58:36;7.25;;;3.63;;
24153;SDS011;12312;53.362;-1.518;2023-05-19T15:02:21;8.65;;;4.10;;
24153;SDS011;12312;53.362;-1.518;2023-05-19T15:06:09;8.45;;;4.10;;
24153;SDS011;12312;53.362;-1.518;2023-05-19T15:09:52;9.13;;;4.57;;
24153;SDS011;12312;53.362;-1.518;2023-05-19T15:13:37;9.00;;;4.80;;
24153;SDS011;12312;53.362;-1.518;2023-05-19T15:17:20;5.90;;;3.30;;
24153;SDS011;12312;53.362;-1.518;2023-05-19T15:21:03;4.68;;;3.08;;
24153;SDS011;12312;53.362;-1.518;2023-05-19T15:24:45;5.45;;;3.00;;
24153;SDS011;12312;53.362;-1.518;2023-05-19T15:28:28;3.92;;;2.42;;
24153;SDS011;12312;53.362;-1.518;2023-05-19T15:32:11;4.00;;;2.58;;
24153;SDS011;12312;53.362;-1.518;2023-05-19T15:35:55;5.70;;;2.22;;
24153;SDS011;12312;53.362;-1.518;2023-05-19T15:39:38;3.97;;;2.40;;
24153;SDS011;12312;53.362;-1.518;2023-05-19T15:43:20;4.00;;;2.42;;
24153;SDS011;12312;53.362;-1.518;2023-05-19T15:47:03;6.93;;;3.55;;
24153;SDS011;12312;53.362;-1.518;2023-05-19T15:50:45;4.70;;;2.55;;
24153;SDS011;12312;53.362;-1.518;2023-05-19T15:54:28;4.97;;;3.00;;
24153;SDS011;12312;53.362;-1.518;2023-05-19T15:58:11;5.38;;;2.42;;
24153;SDS011;12312;53.362;-1.518;2023-05-19T16:01:54;5.32;;;2.60;;
24153;SDS011;12312;53.362;-1.518;2023-05-19T16:05:36;3.17;;;2.10;;
24153;SDS011;12312;53.362;-1.518;2023-05-19T16:09:19;4.05;;;2.22;;
24153;SDS011;12312;53.362;-1.518;2023-05-19T16:13:01;5.90;;;2.60;;
24153;SDS011;12312;53.362;-1.518;2023-05-19T16:16:44;4.00;;;2.38;;
24153;SDS011;12312;53.362;-1.518;2023-05-19T16:20:26;6.45;;;3.65;;
24153;SDS011;12312;53.362;-1.518;2023-05-19T16:24:09;3.83;;;1.88;;
24153;SDS011;12312;53.362;-1.518;2023-05-19T16:27:52;3.58;;;2.40;;
24153;SDS011;12312;53.362;-1.518;2023-05-19T16:31:34;4.13;;;2.50;;
24153;SDS011;12312;53.362;-1.518;2023-05-19T16:35:17;4.28;;;2.53;;
24153;SDS011;12312;53.362;-1.518;2023-05-19T16:38:59;13.18;;;6.10;;
24153;SDS011;12312;53.362;-1.518;2023-05-19T16:42:42;8.43;;;3.97;;
24153;SDS011;12312;53.362;-1.518;2023-05-19T16:46:25;7.00;;;3.67;;
24153;SDS011;12312;53.362;-1.518;2023-05-19T16:50:07;7.93;;;3.95;;
24153;SDS011;12312;53.362;-1.518;2023-05-19T16:53:50;14.48;;;8.07;;
24153;SDS011;12312;53.362;-1.518;2023-05-19T16:57:33;14.93;;;8.10;;
24153;SDS011;12312;53.362;-1.518;2023-05-19T17:01:15;15.18;;;8.90;;
24153;SDS011;12312;53.362;-1.518;2023-05-19T17:04:58;17.38;;;8.45;;
24153;SDS011;12312;53.362;-1.518;2023-05-19T17:08:41;20.95;;;9.50;;
24153;SDS011;12312;53.362;-1.518;2023-05-19T17:12:27;18.02;;;9.27;;
24153;SDS011;12312;53.362;-1.518;2023-05-19T17:16:11;16.95;;;10.20;;
24153;SDS011;12312;53.362;-1.518;2023-05-19T17:19:54;22.13;;;11.63;;
24153;SDS011;12312;53.362;-1.518;2023-05-19T17:23:36;22.77;;;10.48;;
24153;SDS011;12312;53.362;-1.518;2023-05-19T17:27:19;18.52;;;9.75;;
24153;SDS011;12312;53.362;-1.518;2023-05-19T17:31:07;17.65;;;9.23;;
24153;SDS011;12312;53.362;-1.518;2023-05-19T17:34:50;18.80;;;9.00;;
24153;SDS011;12312;53.362;-1.518;2023-05-19T17:38:33;15.90;;;9.50;;
24153;SDS011;12312;53.362;-1.518;2023-05-19T17:42:22;15.57;;;9.40;;
24153;SDS011;12312;53.362;-1.518;2023-05-19T17:46:05;11.85;;;8.13;;
24153;SDS011;12312;53.362;-1.518;2023-05-19T17:49:49;14.82;;;8.43;;
24153;SDS011;12312;53.362;-1.518;2023-05-19T17:53:32;16.73;;;9.60;;
24153;SDS011;12312;53.362;-1.518;2023-05-19T17:57:15;17.33;;;10.02;;
24153;SDS011;12312;53.362;-1.518;2023-05-19T18:00:59;24.90;;;10.63;;
24153;SDS011;12312;53.362;-1.518;2023-05-19T18:04:42;22.67;;;10.52;;
24153;SDS011;12312;53.362;-1.518;2023-05-19T18:08:27;18.52;;;9.57;;
24153;SDS011;12312;53.362;-1.518;2023-05-19T18:12:11;19.98;;;11.80;;
24153;SDS011;12312;53.362;-1.518;2023-05-19T18:15:54;19.80;;;10.48;;
24153;SDS011;12312;53.362;-1.518;2023-05-19T18:19:37;23.02;;;11.27;;
24153;SDS011;12312;53.362;-1.518;2023-05-19T18:23:22;21.73;;;11.60;;
24153;SDS011;12312;53.362;-1.518;2023-05-19T18:27:05;26.40;;;11.93;;
24153;SDS011;12312;53.362;-1.518;2023-05-19T18:30:57;22.50;;;10.93;;
24153;SDS011;12312;53.362;-1.518;2023-05-19T18:34:39;20.52;;;11.10;;
24153;SDS011;12312;53.362;-1.518;2023-05-19T18:38:22;22.90;;;11.15;;
24153;SDS011;12312;53.362;-1.518;2023-05-19T18:42:04;17.98;;;10.35;;
24153;SDS011;12312;53.362;-1.518;2023-05-19T18:45:47;19.27;;;11.20;;
24153;SDS011;12312;53.362;-1.518;2023-05-19T18:49:29;19.55;;;10.70;;
24153;SDS011;12312;53.362;-1.518;2023-05-19T18:53:12;19.73;;;11.20;;
24153;SDS011;12312;53.362;-1.518;2023-05-19T18:56:55;23.55;;;11.93;;
24153;SDS011;12312;53.362;-1.518;2023-05-19T19:00:37;22.30;;;11.50;;
24153;SDS011;12312;53.362;-1.518;2023-05-19T19:04:20;23.48;;;11.85;;
24153;SDS011;12312;53.362;-1.518;2023-05-19T19:08:03;21.80;;;11.90;;
24153;SDS011;12312;53.362;-1.518;2023-05-19T19:11:46;19.65;;;11.60;;
24153;SDS011;12312;53.362;-1.518;2023-05-19T19:15:29;21.48;;;11.00;;
24153;SDS011;12312;53.362;-1.518;2023-05-19T19:19:12;19.65;;;10.35;;
24153;SDS011;12312;53.362;-1.518;2023-05-19T19:22:54;19.90;;;10.68;;
24153;SDS011;12312;53.362;-1.518;2023-05-19T19:26:37;21.42;;;11.02;;
24153;SDS011;12312;53.362;-1.518;2023-05-19T19:30:20;20.02;;;11.57;;
24153;SDS011;12312;53.362;-1.518;2023-05-19T19:34:03;21.27;;;11.45;;
24153;SDS011;12312;53.362;-1.518;2023-05-19T19:37:45;25.67;;;11.82;;
24153;SDS011;12312;53.362;-1.518;2023-05-19T19:41:28;21.77;;;11.90;;
24153;SDS011;12312;53.362;-1.518;2023-05-19T19:45:12;22.00;;;11.23;;
24153;SDS011;12312;53.362;-1.518;2023-05-19T19:48:55;18.13;;;11.43;;
24153;SDS011;12312;53.362;-1.518;2023-05-19T19:52:38;21.88;;;11.93;;
24153;SDS011;12312;53.362;-1.518;2023-05-19T19:56:21;23.30;;;11.95;;
24153;SDS011;12312;53.362;-1.518;2023-05-19T20:00:04;22.48;;;12.40;;
24153;SDS011;12312;53.362;-1.518;2023-05-19T20:03:48;20.00;;;11.50;;
24153;SDS011;12312;53.362;-1.518;2023-05-19T20:07:32;22.27;;;11.40;;
24153;SDS011;12312;53.362;-1.518;2023-05-19T20:11:14;24.00;;;12.65;;
24153;SDS011;12312;53.362;-1.518;2023-05-19T20:14:57;22.85;;;12.38;;
24153;SDS011;12312;53.362;-1.518;2023-05-19T20:18:39;19.23;;;11.60;;
24153;SDS011;12312;53.362;-1.518;2023-05-19T20:22:22;24.63;;;12.48;;
24153;SDS011;12312;53.362;-1.518;2023-05-19T20:26:05;29.50;;;13.30;;
24153;SDS011;12312;53.362;-1.518;2023-05-19T20:29:48;21.52;;;11.40;;
24153;SDS011;12312;53.362;-1.518;2023-05-19T20:33:31;21.95;;;11.45;;
24153;SDS011;12312;53.362;-1.518;2023-05-19T20:37:13;25.13;;;11.75;;
24153;SDS011;12312;53.362;-1.518;2023-05-19T20:40:56;22.00;;;11.40;;
24153;SDS011;12312;53.362;-1.518;2023-05-19T20:44:39;21.20;;;12.68;;
24153;SDS011;12312;53.362;-1.518;2023-05-19T20:48:22;22.52;;;12.85;;
24153;SDS011;12312;53.362;-1.518;2023-05-19T20:52:05;21.00;;;11.85;;
24153;SDS011;12312;53.362;-1.518;2023-05-19T20:55:49;25.02;;;12.60;;
24153;SDS011;12312;53.362;-1.518;2023-05-19T20:59:32;25.55;;;13.27;;
24153;SDS011;12312;53.362;-1.518;2023-05-19T21:03:15;28.27;;;14.27;;
24153;SDS011;12312;53.362;-1.518;2023-05-19T21:06:59;26.88;;;13.23;;
24153;SDS011;12312;53.362;-1.518;2023-05-19T21:10:42;23.42;;;12.70;;
24153;SDS011;12312;53.362;-1.518;2023-05-19T21:14:25;20.50;;;11.50;;
24153;SDS011;12312;53.362;-1.518;2023-05-19T21:18:07;23.75;;;11.52;;
24153;SDS011;12312;53.362;-1.518;2023-05-19T21:21:50;20.40;;;11.63;;
24153;SDS011;12312;53.362;-1.518;2023-05-19T21:25:33;20.27;;;10.18;;
24153;SDS011;12312;53.362;-1.518;2023-05-19T21:29:15;19.50;;;10.93;;
24153;SDS011;12312;53.362;-1.518;2023-05-19T21:32:59;21.30;;;10.57;;
24153;SDS011;12312;53.362;-1.518;2023-05-19T21:36:42;20.50;;;10.65;;
24153;SDS011;12312;53.362;-1.518;2023-05-19T21:40:25;21.10;;;10.10;;
24153;SDS011;12312;53.362;-1.518;2023-05-19T21:44:07;20.85;;;10.23;;
24153;SDS011;12312;53.362;-1.518;2023-05-19T21:47:50;17.98;;;9.80;;
24153;SDS011;12312;53.362;-1.518;2023-05-19T21:51:33;20.45;;;10.23;;
24153;SDS011;12312;53.362;-1.518;2023-05-19T21:55:18;22.48;;;11.68;;
24153;SDS011;12312;53.362;-1.518;2023-05-19T21:59:01;25.38;;;11.52;;
24153;SDS011;12312;53.362;-1.518;2023-05-19T22:02:43;23.92;;;11.90;;
24153;SDS011;12312;53.362;-1.518;2023-05-19T22:06:27;23.35;;;11.45;;
24153;SDS011;12312;53.362;-1.518;2023-05-19T22:10:10;24.33;;;11.43;;
24153;SDS011;12312;53.362;-1.518;2023-05-19T22:13:53;20.70;;;11.18;;
24153;SDS011;12312;53.362;-1.518;2023-05-19T22:17:35;25.00;;;12.45;;